createdAt,value
2023-09-05T00:02:16.897Z,2.35
2023-09-05T00:04:49.529Z,2.47
2023-09-05T00:07:18.118Z,2.30
2023-09-05T00:09:48.124Z,2.15
2023-09-05T00:12:15.029Z,2.25
2023-09-05T00:14:47.871Z,2.33
2023-09-05T00:17:17.327Z,2.40
2023-09-05T00:19:50.524Z,2.75
2023-09-05T00:22:17.440Z,2.03
2023-09-05T00:24:48.138Z,2.13
2023-09-05T00:27:23.548Z,2.30
2023-09-05T00:29:53.121Z,2.40
2023-09-05T00:32:23.659Z,2.25
2023-09-05T00:34:50.543Z,2.42
2023-09-05T00:37:23.760Z,2.25
2023-09-05T00:39:56.584Z,2.47
2023-09-05T00:42:27.114Z,2.15
2023-09-05T00:45:03.212Z,2.30
2023-09-05T00:47:33.605Z,2.30
2023-09-05T00:50:12.789Z,2.63
2023-09-05T00:52:45.303Z,2.30
2023-09-05T00:55:12.855Z,2.40
2023-09-05T00:57:42.575Z,2.60
2023-09-05T01:00:13.176Z,2.17
2023-09-05T01:02:45.610Z,2.40
2023-09-05T01:05:59.332Z,2.08
2023-09-05T01:09:01.394Z,2.35
2023-09-05T01:11:37.958Z,2.05
2023-09-05T01:14:17.509Z,2.20
2023-09-05T01:16:46.324Z,2.25
2023-09-05T01:19:22.200Z,2.25
2023-09-05T01:22:02.978Z,2.28
2023-09-05T01:24:36.937Z,2.50
2023-09-05T01:27:05.327Z,2.10
2023-09-05T01:29:36.580Z,2.20
2023-09-05T01:32:11.952Z,2.38
2023-09-05T01:34:44.902Z,2.53
2023-09-05T01:37:18.194Z,2.45
2023-09-05T01:39:51.212Z,2.20
2023-09-05T01:42:18.157Z,2.15
2023-09-05T01:44:50.737Z,2.50
2023-09-05T01:47:17.672Z,2.33
2023-09-05T01:49:47.321Z,2.00
2023-09-05T01:52:16.864Z,2.25
2023-09-05T01:54:43.881Z,2.60
2023-09-05T01:57:16.790Z,2.30
2023-09-05T01:59:46.662Z,2.78
2023-09-05T02:02:16.547Z,2.30
2023-09-05T02:04:46.022Z,2.05
2023-09-05T02:07:12.908Z,2.42
2023-09-05T02:09:51.654Z,2.20
2023-09-05T02:12:21.403Z,2.40
2023-09-05T02:14:53.839Z,2.00
2023-09-05T02:17:21.980Z,2.03
2023-09-05T02:19:51.549Z,2.63
2023-09-05T02:22:30.188Z,2.53
2023-09-05T02:25:09.201Z,2.20
2023-09-05T02:27:36.041Z,2.30
2023-09-05T02:30:07.433Z,2.30
2023-09-05T02:32:34.476Z,2.00
2023-09-05T02:35:05.191Z,2.20
2023-09-05T02:37:37.984Z,2.63
2023-09-05T02:40:08.410Z,2.67
2023-09-05T02:42:38.412Z,2.40
2023-09-05T02:45:11.608Z,1.95
2023-09-05T02:47:47.998Z,2.63
2023-09-05T02:50:17.738Z,2.70
2023-09-05T02:52:48.437Z,2.40
2023-09-05T02:55:24.662Z,2.10
2023-09-05T02:57:52.236Z,2.45
2023-09-05T03:00:20.905Z,2.55
2023-09-05T03:02:54.051Z,2.42
2023-09-05T03:05:20.945Z,2.60
2023-09-05T03:07:47.806Z,2.35
2023-09-05T03:10:20.806Z,2.35
2023-09-05T03:12:47.791Z,2.80
2023-09-05T03:15:22.263Z,2.80
2023-09-05T03:17:51.914Z,2.63
2023-09-05T03:20:26.636Z,2.38
2023-09-05T03:22:57.243Z,2.47
2023-09-05T03:25:29.711Z,2.88
2023-09-05T03:28:02.352Z,2.45
2023-09-05T03:30:32.286Z,2.63
2023-09-05T03:32:59.137Z,2.30
2023-09-05T03:35:26.027Z,2.47
2023-09-05T03:37:52.871Z,2.47
2023-09-05T03:40:19.797Z,2.60
2023-09-05T03:42:46.859Z,2.72
2023-09-05T03:45:16.577Z,2.42
2023-09-05T03:47:58.072Z,2.60
2023-09-05T03:50:25.358Z,2.83
2023-09-05T03:52:58.183Z,3.28
2023-09-05T03:55:30.801Z,2.38
2023-09-05T03:58:00.495Z,2.90
2023-09-05T04:00:27.456Z,3.13
2023-09-05T04:02:58.030Z,2.70
2023-09-05T04:05:33.925Z,2.78
2023-09-05T04:08:07.129Z,2.20
2023-09-05T04:10:46.317Z,2.65
2023-09-05T04:13:16.294Z,3.08
2023-09-05T04:15:46.216Z,2.67
2023-09-05T04:18:19.365Z,2.67
2023-09-05T04:20:46.351Z,2.25
2023-09-05T04:23:16.140Z,2.70
2023-09-05T04:25:48.661Z,2.70
2023-09-05T04:28:18.422Z,2.67
2023-09-05T04:30:50.611Z,2.40
2023-09-05T04:33:20.505Z,3.30
2023-09-05T04:35:50.401Z,2.40
2023-09-05T04:38:20.219Z,2.72
2023-09-05T04:40:52.949Z,2.30
2023-09-05T04:43:25.752Z,2.20
2023-09-05T04:46:02.220Z,2.60
2023-09-05T04:48:29.182Z,2.60
2023-09-05T04:51:08.145Z,2.60
2023-09-05T04:53:35.000Z,2.55
2023-09-05T04:56:07.823Z,2.60
2023-09-05T04:58:37.685Z,2.63
2023-09-05T05:01:04.821Z,3.03
2023-09-05T05:03:33.500Z,2.63
2023-09-05T05:06:01.370Z,3.00
2023-09-05T05:08:28.513Z,2.60
2023-09-05T05:10:55.920Z,2.78
2023-09-05T05:13:22.962Z,2.85
2023-09-05T05:15:49.855Z,2.53
2023-09-05T05:18:16.766Z,2.72
2023-09-05T05:20:43.569Z,3.05
2023-09-05T05:23:10.508Z,2.58
2023-09-05T05:25:37.645Z,3.00
2023-09-05T05:28:05.962Z,2.30
2023-09-05T05:30:38.778Z,2.67
2023-09-05T05:33:05.980Z,3.03
2023-09-05T05:35:33.569Z,2.67
2023-09-05T05:38:00.393Z,2.53
2023-09-05T05:40:27.266Z,3.00
2023-09-05T05:42:54.131Z,2.42
2023-09-05T05:45:21.062Z,2.75
2023-09-05T05:47:47.993Z,2.55
2023-09-05T05:50:15.226Z,2.65
2023-09-05T05:52:42.568Z,2.55
2023-09-05T05:55:11.525Z,2.83
2023-09-05T05:57:38.466Z,2.45
2023-09-05T06:00:07.450Z,2.58
2023-09-05T06:02:35.002Z,2.42
2023-09-05T06:05:01.887Z,2.17
2023-09-05T06:07:28.774Z,2.63
2023-09-05T06:09:55.967Z,2.63
2023-09-05T06:12:22.803Z,2.15
2023-09-05T06:14:49.685Z,3.00
2023-09-05T06:17:16.777Z,2.30
2023-09-05T06:19:43.866Z,2.30
2023-09-05T06:22:10.700Z,2.40
2023-09-05T06:24:37.805Z,2.40
2023-09-05T06:27:04.766Z,2.80
2023-09-05T06:29:31.620Z,2.20
2023-09-05T06:31:58.494Z,2.33
2023-09-05T06:34:25.446Z,2.28
2023-09-05T06:36:52.883Z,2.20
2023-09-05T06:39:19.884Z,2.08
2023-09-05T06:41:46.823Z,2.63
2023-09-05T06:44:13.632Z,1.98
2023-09-05T06:46:40.592Z,2.33
2023-09-05T06:49:07.512Z,2.10
2023-09-05T06:51:34.339Z,2.00
2023-09-05T06:54:01.353Z,1.95
2023-09-05T06:56:28.317Z,1.88
2023-09-05T06:58:55.202Z,2.22
2023-09-05T07:01:22.107Z,2.20
2023-09-05T07:03:49.016Z,1.80
2023-09-05T07:06:19.539Z,1.95
2023-09-05T07:08:50.382Z,1.80
2023-09-05T07:11:17.621Z,1.98
2023-09-05T07:13:44.564Z,2.30
2023-09-05T07:16:11.445Z,2.22
2023-09-05T07:18:38.398Z,2.10
2023-09-05T07:21:05.272Z,1.77
2023-09-05T07:23:32.120Z,1.80
2023-09-05T07:26:07.825Z,1.80
2023-09-05T07:28:36.151Z,2.28
2023-09-05T07:31:03.372Z,1.95
2023-09-05T07:33:30.498Z,2.10
2023-09-05T07:35:58.650Z,2.08
2023-09-05T07:38:27.660Z,2.53
2023-09-05T07:41:04.541Z,2.05
2023-09-05T07:43:33.791Z,1.70
2023-09-05T07:46:01.244Z,1.80
2023-09-05T07:48:28.765Z,1.80
2023-09-05T07:51:06.380Z,1.58
2023-09-05T07:53:35.822Z,1.80
2023-09-05T07:56:04.257Z,1.98
2023-09-05T07:58:31.539Z,1.85
2023-09-05T08:00:58.737Z,1.80
2023-09-05T08:03:29.356Z,1.52
2023-09-05T08:05:56.863Z,1.88
2023-09-05T08:08:24.568Z,2.30
2023-09-05T08:10:53.142Z,1.92
2023-09-05T08:13:20.075Z,2.10
2023-09-05T08:15:48.080Z,1.60
2023-09-05T08:18:15.097Z,1.92
2023-09-05T08:20:44.177Z,2.00
2023-09-05T08:23:11.991Z,1.88
2023-09-05T08:25:39.487Z,1.90
2023-09-05T08:28:07.010Z,1.88
2023-09-05T08:30:33.909Z,1.70
2023-09-05T08:33:03.902Z,1.92
2023-09-05T08:35:31.006Z,1.90
2023-09-05T08:38:04.071Z,2.00
2023-09-05T08:40:34.698Z,2.13
2023-09-05T08:43:03.028Z,1.92
2023-09-05T08:45:31.376Z,1.70
2023-09-05T08:48:00.866Z,1.85
2023-09-05T08:50:30.120Z,2.45
2023-09-05T08:52:59.595Z,2.28
2023-09-05T08:55:26.864Z,2.25
2023-09-05T08:57:55.347Z,2.15
2023-09-05T09:00:23.069Z,2.30
2023-09-05T09:02:50.244Z,2.17
2023-09-05T09:05:17.254Z,2.05
2023-09-05T09:07:44.165Z,1.67
2023-09-05T09:10:19.320Z,2.33
2023-09-05T09:15:14.238Z,2.42
2023-09-05T09:17:42.785Z,2.35
2023-09-05T09:20:13.481Z,2.72
2023-09-05T09:22:41.472Z,3.40
2023-09-05T09:25:15.915Z,3.20
2023-09-05T09:27:43.285Z,2.28
2023-09-05T09:30:11.019Z,2.03
2023-09-05T09:32:39.481Z,2.35
2023-09-05T09:35:11.360Z,2.03
2023-09-05T09:37:38.160Z,1.92
2023-09-05T09:40:07.196Z,2.13
2023-09-05T09:42:35.752Z,2.22
2023-09-05T09:45:06.385Z,2.28
2023-09-05T09:47:35.688Z,1.98
2023-09-05T09:50:04.608Z,2.15
2023-09-05T09:52:35.529Z,2.13
2023-09-05T09:55:09.049Z,2.00
2023-09-05T09:57:43.862Z,2.05
2023-09-05T10:00:13.052Z,1.90
2023-09-05T10:02:44.567Z,2.17
2023-09-05T10:05:13.333Z,2.60
2023-09-05T10:07:40.440Z,2.03
2023-09-05T10:10:08.167Z,2.63
2023-09-05T10:12:37.208Z,2.05
2023-09-05T10:15:06.366Z,2.50
2023-09-05T10:17:34.205Z,2.78
2023-09-05T10:20:01.865Z,2.20
2023-09-05T10:22:34.012Z,2.40
2023-09-05T10:25:01.654Z,2.22
2023-09-05T10:27:28.628Z,2.45
2023-09-05T10:29:55.470Z,2.17
2023-09-05T10:32:25.676Z,2.50
2023-09-05T10:34:52.636Z,1.85
2023-09-05T10:37:20.122Z,2.17
2023-09-05T10:39:47.606Z,2.47
2023-09-05T10:42:15.498Z,2.47
2023-09-05T10:44:43.449Z,2.53
2023-09-05T10:47:27.550Z,2.20
2023-09-05T10:50:09.299Z,2.30
2023-09-05T10:52:36.686Z,2.30
2023-09-05T10:55:30.961Z,1.80
2023-09-05T10:57:58.046Z,2.15
2023-09-05T11:00:27.959Z,2.20
2023-09-05T11:02:56.951Z,2.22
2023-09-05T11:05:28.392Z,2.17
2023-09-05T11:08:00.297Z,2.28
2023-09-05T11:10:34.699Z,2.10
2023-09-05T11:13:09.502Z,2.17
2023-09-05T11:15:39.342Z,2.10
2023-09-05T11:18:10.393Z,2.17
2023-09-05T11:20:46.361Z,2.13
2023-09-05T11:23:22.369Z,2.00
2023-09-05T11:25:55.310Z,2.20
2023-09-05T11:28:24.580Z,2.20
2023-09-05T11:31:04.653Z,2.17
2023-09-05T11:33:33.549Z,1.85
2023-09-05T11:36:06.575Z,2.58
2023-09-05T11:38:49.360Z,3.08
2023-09-05T11:41:17.493Z,2.58
2023-09-05T11:43:48.956Z,2.33
2023-09-05T11:46:17.348Z,2.20
2023-09-05T11:48:45.945Z,2.25
2023-09-05T11:51:15.554Z,1.90
2023-09-05T11:53:44.299Z,2.22
2023-09-05T11:56:12.495Z,2.03
2023-09-05T11:58:39.893Z,2.20
2023-09-05T12:01:06.926Z,2.40
2023-09-05T12:03:40.171Z,1.98
2023-09-05T12:06:10.032Z,2.00
2023-09-05T12:08:37.942Z,2.33
2023-09-05T12:11:06.839Z,2.50
2023-09-05T12:13:42.158Z,1.63
2023-09-05T12:16:10.210Z,2.20
2023-09-05T12:18:40.920Z,1.90
2023-09-05T12:21:09.917Z,1.98
2023-09-05T12:23:36.836Z,1.88
2023-09-05T12:26:04.038Z,2.15
2023-09-05T12:28:31.874Z,2.00
2023-09-05T12:31:12.086Z,2.00
2023-09-05T12:33:39.240Z,2.25
2023-09-05T12:36:06.330Z,2.00
2023-09-05T12:38:33.208Z,2.05
2023-09-05T12:41:00.166Z,2.15
2023-09-05T12:43:27.195Z,1.70
2023-09-05T12:45:54.366Z,2.25
2023-09-05T12:48:21.360Z,2.40
2023-09-05T12:50:50.533Z,1.90
2023-09-05T12:53:20.301Z,2.10
2023-09-05T12:55:47.852Z,2.10
2023-09-05T12:58:14.811Z,2.00
2023-09-05T13:00:41.876Z,2.03
2023-09-05T13:03:09.432Z,2.05
2023-09-05T13:05:36.456Z,2.40
2023-09-05T13:08:05.332Z,2.13
2023-09-05T13:10:32.416Z,1.80
2023-09-05T13:13:02.694Z,2.45
2023-09-05T13:15:31.415Z,2.10
2023-09-05T13:17:58.740Z,1.70
2023-09-05T13:20:25.748Z,2.10
2023-09-05T13:22:52.782Z,2.10
2023-09-05T13:25:20.799Z,2.10
2023-09-05T13:27:48.603Z,2.15
2023-09-05T13:30:16.400Z,2.17
2023-09-05T13:32:43.630Z,2.05
2023-09-05T13:35:10.997Z,2.20
2023-09-05T13:37:38.431Z,2.10
2023-09-05T13:40:06.224Z,2.33
2023-09-05T13:42:34.819Z,2.22
2023-09-05T13:45:02.144Z,2.08
2023-09-05T13:47:29.347Z,1.90
2023-09-05T13:49:57.099Z,1.92
2023-09-05T13:52:24.008Z,2.47
2023-09-05T13:54:50.920Z,2.30
2023-09-05T13:57:17.886Z,2.55
2023-09-05T13:59:46.236Z,2.05
2023-09-05T14:02:13.279Z,2.10
2023-09-05T14:04:40.127Z,2.00
2023-09-05T14:07:08.141Z,2.15
2023-09-05T14:09:38.055Z,2.10
2023-09-05T14:12:05.591Z,1.90
2023-09-05T14:14:32.460Z,2.55
2023-09-05T14:16:59.409Z,2.15
2023-09-05T14:19:26.401Z,2.00
2023-09-05T14:21:53.350Z,1.95
2023-09-05T14:24:20.522Z,1.90
2023-09-05T14:26:47.880Z,1.83
2023-09-05T14:29:15.700Z,2.22
2023-09-05T14:31:43.137Z,1.70
2023-09-05T14:34:10.811Z,2.20
2023-09-05T14:36:38.559Z,1.85
2023-09-05T14:39:05.602Z,2.40
2023-09-05T14:41:32.936Z,2.22
2023-09-05T14:44:04.387Z,2.10
2023-09-05T14:46:33.687Z,2.40
2023-09-05T14:49:00.992Z,2.22
2023-09-05T14:51:27.996Z,2.65
2023-09-05T14:53:55.141Z,1.85
2023-09-05T14:56:22.143Z,1.88
2023-09-05T14:58:49.278Z,1.88
2023-09-05T15:01:16.160Z,2.45
2023-09-05T15:03:44.194Z,2.25
2023-09-05T15:06:11.813Z,2.63
2023-09-05T15:08:39.032Z,2.20
2023-09-05T15:11:06.272Z,2.47
2023-09-05T15:13:34.062Z,2.58
2023-09-05T15:16:01.656Z,2.40
2023-09-05T15:18:30.319Z,2.20
2023-09-05T15:20:57.450Z,2.08
2023-09-05T15:23:24.426Z,1.92
2023-09-05T15:25:51.294Z,1.88
2023-09-05T15:28:18.113Z,2.45
2023-09-05T15:30:45.249Z,2.20
2023-09-05T15:33:12.392Z,2.63
2023-09-05T15:35:39.466Z,1.92
2023-09-05T15:38:09.365Z,2.55
2023-09-05T15:40:36.844Z,2.15
2023-09-05T15:43:03.907Z,2.45
2023-09-05T15:45:32.458Z,2.30
2023-09-05T15:48:00.824Z,2.85
2023-09-05T15:50:29.488Z,2.55
2023-09-05T15:52:56.546Z,2.47
2023-09-05T15:55:23.578Z,1.92
2023-09-05T15:57:50.699Z,2.72
2023-09-05T16:00:18.209Z,2.20
2023-09-05T16:02:46.710Z,2.28
2023-09-05T16:05:13.814Z,2.30
2023-09-05T16:07:40.745Z,2.28
2023-09-05T16:10:07.957Z,2.22
2023-09-05T16:12:35.823Z,2.35
2023-09-05T16:15:02.850Z,2.67
2023-09-05T16:17:29.817Z,2.95
2023-09-05T16:19:56.802Z,2.40
2023-09-05T16:22:23.633Z,2.75
2023-09-05T16:24:51.537Z,2.20
2023-09-05T16:27:18.685Z,2.53
2023-09-05T16:29:47.792Z,3.33
2023-09-05T16:32:15.832Z,2.80
2023-09-05T16:34:42.947Z,2.60
2023-09-05T16:37:09.922Z,2.58
2023-09-05T16:39:38.772Z,2.20
2023-09-05T16:42:05.986Z,2.70
2023-09-05T16:44:32.847Z,2.40
2023-09-05T16:46:59.842Z,2.67
2023-09-05T16:49:26.769Z,3.35
2023-09-05T16:51:53.743Z,3.17
2023-09-05T16:54:20.688Z,3.30
2023-09-05T16:56:47.633Z,3.10
2023-09-05T16:59:14.698Z,3.13
2023-09-05T17:01:42.409Z,2.83
2023-09-05T17:04:09.869Z,3.38
2023-09-05T17:06:37.441Z,3.70
2023-09-05T17:09:10.008Z,3.28
2023-09-05T17:11:37.278Z,3.17
2023-09-05T17:14:05.013Z,3.33
2023-09-05T17:16:35.059Z,3.15
2023-09-05T17:19:02.139Z,2.92
2023-09-05T17:21:29.241Z,3.10
2023-09-05T17:23:56.212Z,2.95
2023-09-05T17:26:23.152Z,3.30
2023-09-05T17:28:50.150Z,3.15
2023-09-05T17:31:17.221Z,3.20
2023-09-05T17:33:45.476Z,3.47
2023-09-05T17:36:13.564Z,3.25
2023-09-05T17:38:41.055Z,3.33
2023-09-05T17:41:09.095Z,3.08
2023-09-05T17:43:36.953Z,3.22
2023-09-05T17:46:07.644Z,3.25
2023-09-05T17:48:35.166Z,3.25
2023-09-05T17:51:02.285Z,3.40
2023-09-05T17:53:29.541Z,3.00
2023-09-05T17:55:59.069Z,3.65
2023-09-05T17:58:26.164Z,3.22
2023-09-05T18:00:54.007Z,3.20
2023-09-05T18:03:23.569Z,3.85
2023-09-05T18:05:51.918Z,3.38
2023-09-05T18:08:19.111Z,3.40
2023-09-05T18:10:46.681Z,3.92
2023-09-05T18:13:14.008Z,3.60
2023-09-05T18:15:42.418Z,3.15
2023-09-05T18:18:10.274Z,4.00
2023-09-05T18:20:43.247Z,3.85
2023-09-05T18:23:10.211Z,3.80
2023-09-05T18:25:37.213Z,3.78
2023-09-05T18:28:04.328Z,3.80
2023-09-05T18:30:31.347Z,4.22
2023-09-05T18:32:58.237Z,3.40
2023-09-05T18:35:25.166Z,3.95
2023-09-05T18:37:52.079Z,3.28
2023-09-05T18:40:19.075Z,3.00
2023-09-05T18:42:45.955Z,3.80
2023-09-05T18:45:13.317Z,3.90
2023-09-05T18:47:40.611Z,4.30
2023-09-05T18:50:07.884Z,3.78
2023-09-05T18:52:34.766Z,3.85
2023-09-05T18:55:01.675Z,4.53
2023-09-05T18:57:28.707Z,5.28
2023-09-05T18:59:55.736Z,4.22
2023-09-05T19:02:29.146Z,4.15
2023-09-05T19:04:56.822Z,3.60
2023-09-05T19:07:23.787Z,3.70
2023-09-05T19:09:50.604Z,3.92
2023-09-05T19:12:19.389Z,4.57
2023-09-05T19:14:48.086Z,3.95
2023-09-05T19:17:15.371Z,4.47
2023-09-05T19:19:42.261Z,4.45
2023-09-05T19:22:09.121Z,4.10
2023-09-05T19:24:37.674Z,5.32
2023-09-05T19:27:05.199Z,5.40
2023-09-05T19:29:32.165Z,5.93
2023-09-05T19:31:59.447Z,5.10
2023-09-05T19:34:26.534Z,5.68
2023-09-05T19:36:53.711Z,5.68
2023-09-05T19:39:21.059Z,4.40
2023-09-05T19:41:47.985Z,5.18
2023-09-05T19:44:14.909Z,4.63
2023-09-05T19:46:41.850Z,4.95
2023-09-05T19:49:08.766Z,7.15
2023-09-05T19:51:35.812Z,5.40
2023-09-05T19:54:02.866Z,4.80
2023-09-05T19:56:30.011Z,4.25
2023-09-05T19:58:57.512Z,4.38
2023-09-05T20:01:24.497Z,4.68
2023-09-05T20:03:52.459Z,5.03
2023-09-05T20:06:19.739Z,7.05
2023-09-05T20:08:47.146Z,8.05
2023-09-05T20:11:14.144Z,11.15
2023-09-05T20:13:41.055Z,7.15
2023-09-05T20:16:08.086Z,6.00
2023-09-05T20:18:35.589Z,5.15
2023-09-05T20:21:03.160Z,4.75
2023-09-05T20:23:30.062Z,4.20
2023-09-05T20:25:57.000Z,4.20
2023-09-05T20:28:23.833Z,4.88
2023-09-05T20:30:55.561Z,4.97
2023-09-05T20:33:24.021Z,4.72
2023-09-05T20:35:52.802Z,4.53
2023-09-05T20:38:20.825Z,4.68
2023-09-05T20:40:50.977Z,4.97
2023-09-05T20:43:18.490Z,4.85
2023-09-05T20:45:45.895Z,5.38
2023-09-05T20:48:13.186Z,5.03
2023-09-05T20:50:40.187Z,4.90
2023-09-05T20:53:07.420Z,5.05
2023-09-05T20:55:34.633Z,4.60
2023-09-05T20:58:02.821Z,5.45
2023-09-05T21:00:31.444Z,4.97
2023-09-05T21:02:59.075Z,5.47
2023-09-05T21:05:30.021Z,4.75
2023-09-05T21:07:56.868Z,5.57
2023-09-05T21:10:23.755Z,5.00
2023-09-05T21:12:55.622Z,4.75
2023-09-05T21:15:23.456Z,5.13
2023-09-05T21:17:50.587Z,4.57
2023-09-05T21:20:17.736Z,4.85
2023-09-05T21:22:45.663Z,4.88
2023-09-05T21:25:13.707Z,5.35
2023-09-05T21:27:41.424Z,4.53
2023-09-05T21:30:09.886Z,5.78
2023-09-05T21:32:40.195Z,4.97
2023-09-05T21:35:08.012Z,4.18
2023-09-05T21:37:35.244Z,5.20
2023-09-05T21:40:02.773Z,5.00
2023-09-05T21:42:29.890Z,4.65
2023-09-05T21:44:56.750Z,4.63
2023-09-05T21:47:23.747Z,4.60
2023-09-05T21:49:54.313Z,4.85
2023-09-05T21:52:21.445Z,5.20
2023-09-05T21:54:48.659Z,5.43
2023-09-05T21:57:15.580Z,4.50
2023-09-05T21:59:43.132Z,5.43
2023-09-05T22:02:10.857Z,5.32
2023-09-05T22:04:38.304Z,5.35
2023-09-05T22:07:05.545Z,4.85
2023-09-05T22:09:32.437Z,5.50
2023-09-05T22:12:05.861Z,5.95
2023-09-05T22:14:33.513Z,4.75
2023-09-05T22:17:02.583Z,5.10
2023-09-05T22:19:30.028Z,4.90
2023-09-05T22:21:57.494Z,5.32
2023-09-05T22:24:26.068Z,5.65
2023-09-05T22:26:54.222Z,5.20
2023-09-05T22:29:21.135Z,5.10
2023-09-05T22:31:48.217Z,4.55
2023-09-05T22:34:15.294Z,5.20
2023-09-05T22:36:42.189Z,5.07
2023-09-05T22:39:11.606Z,4.63
2023-09-05T22:41:39.423Z,4.63
2023-09-05T22:44:06.869Z,4.90
2023-09-05T22:46:33.877Z,4.78
2023-09-05T22:49:00.845Z,4.53
2023-09-05T22:51:27.757Z,4.50
2023-09-05T22:53:54.628Z,5.07
2023-09-05T22:56:21.533Z,4.53
2023-09-05T22:58:52.758Z,4.20
2023-09-05T23:01:20.119Z,4.30
2023-09-05T23:03:47.203Z,4.03
2023-09-05T23:06:14.706Z,4.18
2023-09-05T23:08:41.615Z,3.65
2023-09-05T23:11:08.553Z,4.10
2023-09-05T23:13:38.797Z,4.13
2023-09-05T23:16:06.086Z,3.70
2023-09-05T23:18:38.462Z,4.18
2023-09-05T23:21:06.325Z,3.88
2023-09-05T23:23:36.009Z,3.65
2023-09-05T23:26:04.259Z,4.00
2023-09-05T23:28:31.952Z,4.10
2023-09-05T23:31:02.163Z,4.10
2023-09-05T23:33:31.720Z,4.13
2023-09-05T23:35:58.982Z,4.40
2023-09-05T23:38:26.159Z,3.95
2023-09-05T23:40:53.250Z,3.85
2023-09-05T23:43:20.120Z,4.05
2023-09-05T23:45:52.673Z,4.10
2023-09-05T23:48:24.518Z,4.40
2023-09-05T23:50:51.969Z,3.92
2023-09-05T23:53:18.983Z,4.13
2023-09-05T23:55:46.304Z,4.32
2023-09-05T23:58:13.633Z,4.10
